Time;durP1;ratioP1;P1;durP2;ratioP2;P2;SDS_P1;SDS_P2;PMS_P1;PMS_P2;Temp;Humidity;BMP_temperature;BMP_pressure;BME280_temperature;BME280_humidity;BME280_pressure;Samples;Min_cycle;Max_cycle;Signal;HPM_P1;HPM_P2
2022/08/18 00:01:10;;;;;;;16.90;15.40;;;26.30;82.70;;;;;;5063279;28;20601;-90
2022/08/18 00:03:36;;;;;;;20.33;18.30;;;26.20;82.50;;;;;;5063440;28;20453;-90
2022/08/18 00:06:02;;;;;;;21.40;19.40;;;26.20;83.00;;;;;;5050400;28;20171;-90
2022/08/18 00:08:28;;;;;;;15.07;13.77;;;26.20;83.80;;;;;;5071056;28;20625;-90
2022/08/18 00:10:57;;;;;;;17.40;15.70;;;26.20;82.70;;;;;;5068072;28;20167;-90
2022/08/18 00:13:24;;;;;;;20.10;18.30;;;26.20;83.30;;;;;;5059589;28;20176;-90
2022/08/18 00:15:51;;;;;;;13.93;12.80;;;26.20;84.50;;;;;;5068769;28;20171;-91
2022/08/18 00:18:16;;;;;;;11.43;10.40;;;26.10;84.70;;;;;;5050946;28;20171;-91
2022/08/18 00:20:42;;;;;;;11.20;10.20;;;26.10;83.50;;;;;;5069210;28;20429;-91
2022/08/18 00:23:09;;;;;;;10.67;9.87;;;26.10;83.20;;;;;;5053747;28;20791;-91
2022/08/18 00:25:36;;;;;;;10.87;10.07;;;26.10;83.00;;;;;;5063624;28;20691;-91
2022/08/18 00:28:02;;;;;;;11.17;10.27;;;26.20;83.00;;;;;;5066107;28;20674;-91
2022/08/18 00:30:28;;;;;;;10.97;10.00;;;26.20;82.80;;;;;;5056962;28;20258;-91
2022/08/18 00:32:56;;;;;;;10.97;10.07;;;26.20;82.80;;;;;;5055550;28;20282;-91
2022/08/18 00:35:33;;;;;;;10.77;9.87;;;26.20;82.50;;;;;;5061407;28;20218;-91
2022/08/18 00:38:02;;;;;;;11.40;10.50;;;26.20;82.60;;;;;;5060477;28;20179;-90
2022/08/18 00:40:42;;;;;;;11.47;10.47;;;26.20;82.50;;;;;;5045687;28;20178;-91
2022/08/18 00:43:18;;;;;;;10.97;10.07;;;26.20;82.30;;;;;;5050778;28;20245;-91
2022/08/18 00:45:43;;;;;;;10.50;9.60;;;26.20;82.30;;;;;;5055103;28;20179;-91
2022/08/18 00:48:12;;;;;;;10.70;9.70;;;26.20;82.20;;;;;;5063774;28;20167;-91
2022/08/18 00:50:45;;;;;;;10.50;9.50;;;26.20;82.10;;;;;;5068365;28;20176;-90
2022/08/18 00:53:18;;;;;;;10.37;9.37;;;26.20;82.00;;;;;;5068038;28;20171;-90
2022/08/18 00:55:48;;;;;;;10.43;9.43;;;26.20;82.00;;;;;;5042622;28;20199;-90
2022/08/18 00:58:23;;;;;;;10.27;9.37;;;26.20;82.00;;;;;;5058790;28;20179;-90
2022/08/18 01:00:52;;;;;;;10.87;9.97;;;26.20;82.10;;;;;;5070016;28;20217;-90
2022/08/18 01:03:21;;;;;;;10.17;9.37;;;26.20;82.00;;;;;;5044548;28;20172;-90
2022/08/18 01:06:02;;;;;;;11.43;10.43;;;26.20;82.10;;;;;;5074540;28;20167;-90
2022/08/18 01:08:34;;;;;;;15.40;14.00;;;26.20;82.10;;;;;;5066420;28;20173;-90
2022/08/18 01:11:01;;;;;;;12.70;11.57;;;26.20;82.10;;;;;;5063683;28;20202;-90
2022/08/18 01:13:30;;;;;;;12.97;11.87;;;26.10;82.10;;;;;;5042680;28;20179;-90
2022/08/18 01:15:56;;;;;;;14.10;12.80;;;26.10;82.20;;;;;;5063397;28;20175;-90
2022/08/18 01:24:11;;;;;;;11.20;10.20;;;26.10;82.40;;;;;;5055680;28;20207;-90
2022/08/18 01:26:44;;;;;;;11.77;10.73;;;26.10;82.30;;;;;;5061898;28;20266;-91
2022/08/18 01:29:10;;;;;;;11.93;10.83;;;26.00;82.40;;;;;;5061223;28;20175;-91
2022/08/18 01:31:57;;;;;;;11.17;10.27;;;26.00;82.20;;;;;;5055586;28;20541;-91
2022/08/18 01:34:26;;;;;;;10.23;9.37;;;26.00;82.30;;;;;;5074245;28;20192;-90
2022/08/18 01:36:53;;;;;;;17.07;15.43;;;26.00;82.40;;;;;;5057440;28;20179;-91
2022/08/18 01:39:21;;;;;;;18.03;16.33;;;26.00;82.80;;;;;;5061088;28;20229;-91
2022/08/18 01:41:48;;;;;;;20.00;18.10;;;25.90;83.50;;;;;;5060037;28;20203;-91
2022/08/18 01:44:25;;;;;;;22.30;20.03;;;25.80;84.20;;;;;;5067829;28;20270;-91
2022/08/18 01:46:52;;;;;;;13.60;12.40;;;25.70;84.90;;;;;;5059653;28;20451;-90
2022/08/18 01:49:44;;;;;;;11.93;10.87;;;25.70;84.60;;;;;;5069109;28;20183;-91
2022/08/18 01:52:16;;;;;;;10.93;10.03;;;25.70;84.50;;;;;;5067278;28;20515;-91
2022/08/18 01:54:42;;;;;;;10.10;9.20;;;25.80;84.10;;;;;;5068516;28;20197;-91
2022/08/18 01:57:12;;;;;;;10.77;9.77;;;25.80;83.90;;;;;;5066609;28;20179;-90
2022/08/18 01:59:38;;;;;;;10.57;9.67;;;25.80;83.70;;;;;;5065550;28;20173;-90
2022/08/18 02:02:06;;;;;;;10.27;9.47;;;25.80;83.90;;;;;;5051955;28;20437;-90
2022/08/18 02:07:54;;;;;;;10.53;9.63;;;25.80;83.40;;;;;;5075392;28;20634;-90
2022/08/18 02:10:21;;;;;;;11.77;10.73;;;25.80;83.20;;;;;;5074585;28;20176;-90
2022/08/18 02:12:47;;;;;;;18.77;16.93;;;25.80;83.10;;;;;;5075097;28;20576;-90
2022/08/18 02:15:13;;;;;;;11.40;10.33;;;25.80;83.20;;;;;;5074122;28;20171;-90
2022/08/18 02:17:44;;;;;;;10.60;9.70;;;25.80;83.00;;;;;;5067961;28;20198;-90
2022/08/18 02:20:14;;;;;;;10.77;9.80;;;25.80;83.20;;;;;;5056522;28;20171;-90
2022/08/18 02:22:41;;;;;;;10.60;9.70;;;25.80;83.10;;;;;;5066659;28;20237;-90
2022/08/18 02:25:09;;;;;;;10.07;9.17;;;25.80;83.20;;;;;;5068542;28;20218;-90
2022/08/18 02:27:35;;;;;;;10.77;9.70;;;25.80;83.20;;;;;;5068528;28;20650;-90
2022/08/18 02:30:07;;;;;;;9.93;9.13;;;25.70;82.90;;;;;;5063211;28;20571;-91
2022/08/18 02:32:39;;;;;;;10.30;9.50;;;25.80;83.10;;;;;;5056132;28;20172;-91
2022/08/18 02:35:06;;;;;;;10.93;10.03;;;25.70;82.80;;;;;;5057558;28;20240;-91
2022/08/18 02:37:31;;;;;;;11.37;10.33;;;25.80;83.00;;;;;;5068028;28;20178;-91
2022/08/18 02:39:58;;;;;;;10.37;9.47;;;25.70;82.80;;;;;;5069161;28;20172;-91
2022/08/18 02:42:24;;;;;;;10.77;9.87;;;25.70;82.80;;;;;;5072653;28;20167;-91
2022/08/18 02:44:50;;;;;;;10.70;9.80;;;25.70;82.70;;;;;;5072795;28;20203;-91
2022/08/18 02:47:20;;;;;;;10.57;9.70;;;25.70;82.70;;;;;;5068017;28;20172;-90
2022/08/18 02:49:47;;;;;;;10.90;10.00;;;25.70;82.70;;;;;;5067089;28;20539;-91
2022/08/18 02:52:12;;;;;;;12.93;11.83;;;25.70;82.70;;;;;;5054190;28;20171;-91
2022/08/18 02:54:38;;;;;;;15.40;13.90;;;25.70;82.80;;;;;;5039470;28;20206;-91
2022/08/18 02:57:10;;;;;;;13.10;11.97;;;25.70;82.90;;;;;;5066595;28;20172;-91
2022/08/18 02:59:37;;;;;;;10.53;9.60;;;25.70;83.00;;;;;;5055481;28;20266;-91
2022/08/18 03:02:06;;;;;;;12.80;11.60;;;25.60;83.10;;;;;;5072799;28;20179;-91
2022/08/18 03:04:58;;;;;;;11.20;10.23;;;25.60;83.30;;;;;;5057601;28;20226;-91
2022/08/18 03:07:24;;;;;;;10.57;9.57;;;25.60;83.00;;;;;;5041761;28;20562;-90
2022/08/18 03:09:49;;;;;;;11.07;10.17;;;25.60;83.00;;;;;;5059679;28;20182;-91
2022/08/18 03:12:17;;;;;;;11.10;10.10;;;25.60;83.00;;;;;;5067152;28;20171;-91
2022/08/18 03:14:43;;;;;;;10.73;9.83;;;25.70;83.10;;;;;;5068920;28;20791;-91
2022/08/18 03:17:09;;;;;;;11.47;10.20;;;25.60;83.00;;;;;;5065995;28;20172;-91
2022/08/18 03:19:36;;;;;;;11.50;10.50;;;25.70;82.90;;;;;;5063783;28;20174;-91
2022/08/18 03:22:09;;;;;;;16.90;15.33;;;25.70;82.90;;;;;;5059459;28;20172;-91
2022/08/18 03:28:03;;;;;;;10.17;9.27;;;25.70;83.10;;;;;;5070034;28;20175;-91
2022/08/18 03:30:29;;;;;;;10.97;9.97;;;25.70;83.00;;;;;;5064208;28;20168;-90
2022/08/18 03:32:57;;;;;;;11.80;10.80;;;25.70;83.10;;;;;;5056914;28;20174;-91
2022/08/18 03:35:27;;;;;;;12.87;10.97;;;25.70;83.00;;;;;;5062528;28;20206;-91
2022/08/18 03:37:55;;;;;;;11.80;10.80;;;25.70;83.00;;;;;;5065100;28;20184;-90
2022/08/18 03:40:21;;;;;;;11.33;10.33;;;25.70;82.90;;;;;;5064473;28;20168;-90
2022/08/18 03:42:47;;;;;;;11.27;10.23;;;25.70;82.90;;;;;;5060191;28;20175;-90
2022/08/18 03:45:12;;;;;;;11.47;10.47;;;25.70;82.80;;;;;;5056467;28;20211;-90
2022/08/18 03:47:40;;;;;;;11.00;9.97;;;25.70;82.80;;;;;;5054391;28;20210;-90
2022/08/18 03:50:06;;;;;;;12.07;11.03;;;25.70;82.80;;;;;;5063837;28;20175;-90
2022/08/18 03:52:37;;;;;;;11.77;10.77;;;25.70;82.80;;;;;;5063352;28;20164;-91
2022/08/18 03:55:03;;;;;;;11.77;10.77;;;25.70;83.00;;;;;;5059360;28;20186;-90
2022/08/18 03:57:31;;;;;;;11.17;10.17;;;25.70;82.80;;;;;;5070786;28;20207;-90
2022/08/18 03:59:58;;;;;;;11.07;10.13;;;25.70;82.90;;;;;;5071512;28;20240;-90
2022/08/18 04:02:27;;;;;;;11.97;10.87;;;25.70;83.00;;;;;;5058757;28;20175;-90
2022/08/18 04:05:10;;;;;;;11.17;10.13;;;25.70;83.00;;;;;;5057331;28;20592;-90
2022/08/18 04:07:37;;;;;;;12.13;11.03;;;25.70;83.30;;;;;;5061204;28;20172;-91
2022/08/18 04:13:28;;;;;;;11.00;10.10;;;25.70;83.00;;;;;;5073855;28;20227;-90
2022/08/18 04:15:58;;;;;;;11.07;9.97;;;25.70;83.10;;;;;;5072484;28;20244;-90
2022/08/18 04:18:27;;;;;;;12.90;11.60;;;25.70;83.10;;;;;;5069208;28;20172;-90
2022/08/18 04:20:53;;;;;;;11.97;10.87;;;25.70;83.30;;;;;;5068692;28;20736;-90
2022/08/18 04:23:20;;;;;;;10.87;9.77;;;25.70;83.10;;;;;;5059820;28;20176;-90
2022/08/18 04:25:58;;;;;;;13.60;12.27;;;25.60;83.20;;;;;;5030087;28;20196;-90
2022/08/18 04:28:25;;;;;;;11.13;10.13;;;25.70;83.80;;;;;;5063875;28;20171;-90
2022/08/18 04:31:22;;;;;;;11.50;10.50;;;25.70;83.30;;;;;;5056838;28;20172;-90
2022/08/18 04:34:10;;;;;;;10.97;9.97;;;25.70;83.20;;;;;;5069041;28;20180;-90
2022/08/18 04:36:36;;;;;;;11.47;10.37;;;25.70;83.10;;;;;;5074126;28;20194;-90
2022/08/18 04:39:05;;;;;;;14.37;13.00;;;25.70;82.90;;;;;;5070587;28;20199;-90
2022/08/18 04:41:32;;;;;;;12.17;10.93;;;25.70;83.10;;;;;;5075187;28;20176;-90
2022/08/18 04:44:04;;;;;;;11.97;10.87;;;25.70;82.90;;;;;;5078139;28;20585;-91
2022/08/18 04:46:39;;;;;;;12.23;11.13;;;25.70;82.90;;;;;;5070019;28;20587;-91
2022/08/18 04:49:45;;;;;;;11.60;10.43;;;25.70;82.90;;;;;;5069745;28;20167;-91
2022/08/18 04:54:54;;;;;;;12.53;11.43;;;25.70;82.80;;;;;;5061328;28;20263;-91
2022/08/18 04:57:22;;;;;;;12.50;11.23;;;25.70;82.80;;;;;;5069267;28;20270;-91
2022/08/18 04:59:50;;;;;;;13.13;11.90;;;25.70;82.80;;;;;;5076681;28;20175;-91
2022/08/18 05:02:18;;;;;;;22.37;18.83;;;25.70;82.70;;;;;;5077479;28;20548;-91
2022/08/18 05:04:45;;;;;;;12.83;11.63;;;25.70;83.30;;;;;;5077299;28;20249;-91
2022/08/18 05:07:14;;;;;;;14.73;13.30;;;25.70;83.00;;;;;;5070663;28;20702;-91
2022/08/18 05:09:41;;;;;;;13.17;11.93;;;25.70;82.80;;;;;;5072254;28;20172;-91
2022/08/18 05:12:11;;;;;;;15.13;13.73;;;25.70;82.80;;;;;;5070278;28;20442;-90
2022/08/18 05:14:37;;;;;;;15.60;13.27;;;25.70;82.70;;;;;;5072083;28;20528;-91
2022/08/18 05:17:03;;;;;;;13.57;12.27;;;25.70;82.40;;;;;;5073630;28;20592;-91
2022/08/18 05:19:30;;;;;;;14.37;12.93;;;25.70;82.50;;;;;;5072435;28;20634;-91
2022/08/18 05:21:57;;;;;;;14.60;12.73;;;25.70;82.20;;;;;;5071246;28;20498;-91
2022/08/18 05:24:26;;;;;;;15.47;13.07;;;25.70;82.10;;;;;;5070842;28;20207;-91
2022/08/18 05:26:52;;;;;;;15.43;13.33;;;25.70;82.00;;;;;;5063899;28;20585;-91
2022/08/18 05:29:22;;;;;;;15.33;12.73;;;25.70;81.90;;;;;;5066215;28;20163;-90
2022/08/18 05:31:58;;;;;;;16.50;14.77;;;25.70;81.90;;;;;;5046706;28;20642;-91
2022/08/18 05:34:26;;;;;;;16.07;14.37;;;25.70;81.80;;;;;;5058984;28;20186;-91
2022/08/18 05:40:21;;;;;;;17.17;15.30;;;25.70;81.90;;;;;;5061494;28;20253;-91
2022/08/18 05:42:47;;;;;;;18.80;16.73;;;25.70;81.90;;;;;;5061831;28;20245;-91
2022/08/18 05:45:41;;;;;;;20.00;16.93;;;25.70;82.10;;;;;;5063718;28;20204;-91
2022/08/18 05:48:07;;;;;;;19.20;16.47;;;25.70;82.00;;;;;;5058853;28;20168;-90
2022/08/18 05:51:13;;;;;;;18.93;16.27;;;25.70;82.20;;;;;;5065038;28;20591;-91
2022/08/18 05:59:50;;;;;;;21.20;17.43;;;25.60;82.60;;;;;;5063814;28;20450;-91
2022/08/18 06:02:37;;;;;;;21.17;18.57;;;25.60;82.50;;;;;;5056216;28;20171;-91
2022/08/18 06:05:10;;;;;;;21.83;17.27;;;25.60;82.50;;;;;;5064237;28;20338;-91
2022/08/18 06:11:10;;;;;;;21.43;18.73;;;25.60;82.80;;;;;;5060758;28;20198;-91
2022/08/18 06:13:39;;;;;;;20.27;17.10;;;25.60;82.60;;;;;;5065600;28;20302;-91
2022/08/18 06:16:20;;;;;;;22.17;18.30;;;25.60;82.60;;;;;;5063998;28;20471;-91
2022/08/18 06:19:06;;;;;;;33.90;27.43;;;25.60;82.80;;;;;;5045606;28;20773;-91
2022/08/18 06:21:41;;;;;;;31.43;24.60;;;25.60;84.60;;;;;;5058733;28;20179;-90
2022/08/18 06:24:32;;;;;;;26.43;21.43;;;25.60;84.40;;;;;;5064815;28;20191;-91
2022/08/18 06:27:23;;;;;;;26.03;22.00;;;25.50;84.60;;;;;;5063850;28;20164;-91
2022/08/18 06:30:03;;;;;;;31.23;24.93;;;25.50;84.80;;;;;;5066457;28;20176;-91
2022/08/18 06:36:11;;;;;;;36.63;27.97;;;25.50;86.90;;;;;;5064809;28;20714;-91
2022/08/18 06:38:59;;;;;;;34.03;26.47;;;25.40;90.00;;;;;;5064768;28;20202;-91
2022/08/18 06:41:38;;;;;;;22.70;18.67;;;25.30;88.60;;;;;;5065660;28;20389;-91
2022/08/18 06:44:12;;;;;;;23.03;19.13;;;25.30;87.60;;;;;;5060501;28;20198;-91
2022/08/18 06:46:44;;;;;;;25.53;21.33;;;25.40;87.60;;;;;;5063488;28;20168;-91
2022/08/18 06:52:34;;;;;;;23.70;20.50;;;25.40;86.40;;;;;;5065099;28;20179;-91
2022/08/18 06:55:16;;;;;;;29.23;22.00;;;25.40;87.50;;;;;;5066006;28;20175;-91
2022/08/18 07:01:06;;;;;;;21.07;17.03;;;25.50;86.20;;;;;;5060448;28;20170;-90
2022/08/18 07:03:38;;;;;;;28.57;22.70;;;25.50;85.90;;;;;;5059970;28;20250;-90
2022/08/18 07:06:07;;;;;;;18.97;16.43;;;25.50;86.10;;;;;;5065451;28;20453;-91
2022/08/18 07:08:41;;;;;;;24.90;20.70;;;25.50;85.80;;;;;;5063829;28;20463;-90
2022/08/18 07:11:41;;;;;;;20.27;17.47;;;25.50;86.30;;;;;;5065905;28;20717;-90
2022/08/18 07:14:20;;;;;;;22.67;18.93;;;25.50;85.70;;;;;;5064208;28;20580;-90
2022/08/18 07:16:47;;;;;;;18.87;16.70;;;25.50;85.30;;;;;;5058174;28;20410;-90
2022/08/18 07:19:21;;;;;;;25.83;21.23;;;25.60;85.10;;;;;;5061878;28;20168;-90
2022/08/18 07:22:08;;;;;;;18.57;16.43;;;25.60;85.80;;;;;;5059653;28;20187;-91
2022/08/18 07:24:40;;;;;;;19.33;17.07;;;25.60;85.00;;;;;;5046675;28;20650;-90
2022/08/18 07:27:09;;;;;;;18.93;16.57;;;25.60;84.90;;;;;;5056011;28;20331;-90
2022/08/18 07:29:38;;;;;;;17.83;15.93;;;25.70;84.70;;;;;;5058021;28;20164;-90
2022/08/18 07:32:15;;;;;;;17.73;15.40;;;25.70;84.30;;;;;;5064608;28;20309;-90
2022/08/18 07:34:47;;;;;;;19.00;16.53;;;25.70;84.20;;;;;;5063383;28;20193;-90
2022/08/18 07:37:50;;;;;;;18.80;16.80;;;25.70;84.20;;;;;;5063694;28;20198;-90
2022/08/18 07:40:41;;;;;;;20.30;16.80;;;25.70;84.10;;;;;;5066451;28;20572;-91
2022/08/18 07:43:27;;;;;;;18.17;15.90;;;25.70;84.10;;;;;;5067194;28;20469;-90
2022/08/18 07:46:01;;;;;;;17.67;15.60;;;25.70;84.00;;;;;;5052594;28;20599;-90
2022/08/18 07:48:32;;;;;;;18.10;16.20;;;25.70;84.00;;;;;;5049834;28;20199;-90
2022/08/18 07:51:17;;;;;;;18.37;16.10;;;25.70;83.90;;;;;;5060408;28;20171;-90
2022/08/18 07:53:51;;;;;;;19.83;17.37;;;25.70;83.90;;;;;;5062907;28;20164;-90
2022/08/18 08:00:09;;;;;;;18.40;16.50;;;25.70;83.60;;;;;;5063047;28;20462;-90
2022/08/18 08:03:10;;;;;;;18.53;16.50;;;25.70;83.70;;;;;;5062615;28;20167;-90
2022/08/18 08:09:04;;;;;;;19.13;16.70;;;25.80;83.90;;;;;;5057474;28;20622;-90
2022/08/18 08:11:51;;;;;;;19.63;17.00;;;25.80;83.50;;;;;;5060055;28;20237;-90
2022/08/18 08:14:40;;;;;;;20.07;16.00;;;25.80;83.50;;;;;;5061427;28;20190;-90
2022/08/18 08:17:39;;;;;;;20.10;17.63;;;25.80;83.20;;;;;;5061783;28;20168;-90
2022/08/18 08:20:24;;;;;;;21.83;17.73;;;25.90;83.20;;;;;;5061035;28;20176;-90
2022/08/18 08:23:03;;;;;;;18.77;16.77;;;25.90;83.10;;;;;;5062206;28;20163;-90
2022/08/18 08:25:59;;;;;;;20.30;18.07;;;25.90;83.10;;;;;;5060839;28;20207;-90
2022/08/18 08:29:02;;;;;;;26.90;21.73;;;25.90;83.20;;;;;;5063508;28;20167;-90
2022/08/18 08:31:46;;;;;;;18.23;16.33;;;25.90;84.10;;;;;;5063808;28;20202;-90
2022/08/18 08:34:15;;;;;;;19.90;16.90;;;25.90;83.10;;;;;;5063319;28;20603;-90
2022/08/18 08:37:14;;;;;;;20.50;16.67;;;26.00;82.50;;;;;;5064251;28;20661;-91
2022/08/18 08:39:49;;;;;;;20.00;17.90;;;26.00;82.10;;;;;;5062374;28;20199;-91
2022/08/18 08:42:22;;;;;;;22.53;19.10;;;26.10;81.60;;;;;;5062704;28;20185;-91
2022/08/18 08:45:12;;;;;;;19.53;17.13;;;26.10;81.70;;;;;;5067346;28;20207;-91
2022/08/18 08:48:16;;;;;;;19.57;17.57;;;26.30;80.90;;;;;;5065449;28;20175;-91
2022/08/18 08:51:11;;;;;;;20.13;17.93;;;26.50;78.80;;;;;;5063663;28;20190;-91
2022/08/18 08:53:48;;;;;;;19.63;17.53;;;26.80;77.50;;;;;;5054343;28;20245;-91
2022/08/18 08:56:17;;;;;;;19.57;17.57;;;27.00;75.00;;;;;;5059266;28;20666;-91
2022/08/18 09:02:07;;;;;;;20.43;18.07;;;27.20;72.80;;;;;;5065254;28;20183;-91
2022/08/18 09:04:54;;;;;;;18.47;16.57;;;27.60;68.80;;;;;;5063762;28;20211;-91
2022/08/18 09:14:15;;;;;;;18.60;16.60;;;27.60;68.30;;;;;;5061526;28;20497;-90
2022/08/18 09:16:53;;;;;;;17.80;16.00;;;27.50;68.50;;;;;;5062853;28;20232;-90
2022/08/18 09:19:35;;;;;;;20.30;18.10;;;27.50;68.40;;;;;;5064589;28;20194;-90
2022/08/18 09:22:31;;;;;;;19.20;17.27;;;27.40;69.30;;;;;;5064564;28;20172;-90
2022/08/18 09:32:19;;;;;;;27.43;22.77;;;27.50;68.50;;;;;;5067388;28;20285;-90
2022/08/18 09:35:06;;;;;;;28.33;24.13;;;27.50;68.10;;;;;;5058500;28;20361;-89
2022/08/18 09:44:20;;;;;;;23.37;20.53;;;27.40;68.50;;;;;;5065478;28;20280;-90
2022/08/18 09:46:52;;;;;;;18.57;16.53;;;27.40;70.30;;;;;;5058820;28;20248;-91
2022/08/18 09:49:21;;;;;;;17.90;16.00;;;27.50;68.50;;;;;;5067114;28;20172;-90
2022/08/18 09:51:49;;;;;;;19.03;16.80;;;27.50;67.70;;;;;;5067023;28;20586;-91
2022/08/18 09:54:20;;;;;;;18.33;16.27;;;27.70;67.10;;;;;;5061237;28;20172;-91
2022/08/18 10:00:11;;;;;;;23.27;20.50;;;27.90;65.40;;;;;;5063332;28;20328;-91
2022/08/18 10:02:40;;;;;;;28.17;24.73;;;27.80;71.40;;;;;;5062269;28;20275;-91
2022/08/18 10:05:15;;;;;;;18.63;16.67;;;27.70;73.80;;;;;;5062252;28;20245;-91
2022/08/18 10:08:06;;;;;;;18.57;16.67;;;27.60;70.70;;;;;;5062913;28;20182;-91
2022/08/18 10:11:02;;;;;;;19.60;16.57;;;27.60;67.50;;;;;;5063304;28;20191;-91
2022/08/18 10:13:35;;;;;;;18.13;16.30;;;27.60;70.00;;;;;;5064386;28;20167;-91
2022/08/18 10:16:01;;;;;;;27.00;24.10;;;27.50;67.90;;;;;;5064156;28;20181;-90
2022/08/18 10:18:51;;;;;;;18.30;16.40;;;27.50;74.30;;;;;;5063413;28;20595;-90
2022/08/18 10:21:21;;;;;;;25.37;22.73;;;27.40;70.30;;;;;;5062645;28;20241;-90
2022/08/18 10:23:56;;;;;;;23.93;21.40;;;27.40;72.40;;;;;;5066931;28;20259;-90
2022/08/18 10:26:31;;;;;;;18.70;16.53;;;27.40;76.00;;;;;;5065429;28;20186;-90
2022/08/18 10:29:06;;;;;;;25.10;22.60;;;27.40;71.00;;;;;;5062081;28;20504;-90
2022/08/18 10:34:56;;;;;;;20.10;17.17;;;27.50;69.10;;;;;;5054980;28;20271;-89
2022/08/18 10:37:46;;;;;;;17.30;15.50;;;27.50;68.70;;;;;;5057574;28;20195;-90
2022/08/18 10:40:18;;;;;;;20.97;17.77;;;27.60;68.80;;;;;;5064747;28;20571;-89
2022/08/18 10:43:18;;;;;;;19.57;17.67;;;27.60;69.20;;;;;;5063808;28;20188;-90
2022/08/18 10:45:53;;;;;;;16.80;15.13;;;27.60;67.80;;;;;;5049502;28;20215;-89
2022/08/18 10:48:31;;;;;;;16.70;15.00;;;27.70;67.00;;;;;;5066727;28;20544;-90
2022/08/18 10:51:06;;;;;;;16.67;15.03;;;27.80;66.70;;;;;;5065555;28;20175;-91
2022/08/18 10:53:57;;;;;;;17.47;15.07;;;27.80;66.70;;;;;;5065710;28;20186;-91
2022/08/18 10:56:42;;;;;;;21.33;19.10;;;27.90;66.30;;;;;;5064829;28;20178;-90
2022/08/18 10:59:20;;;;;;;17.23;15.63;;;27.90;65.90;;;;;;5062183;28;20167;-91
2022/08/18 11:02:23;;;;;;;17.00;15.40;;;28.00;65.10;;;;;;5062751;28;20203;-91
2022/08/18 11:05:05;;;;;;;16.67;15.00;;;28.10;64.40;;;;;;5065570;28;20244;-90
2022/08/18 11:08:23;;;;;;;17.65;15.95;;;28.20;63.80;;;;;;5064236;28;20419;-91
2022/08/18 11:10:50;;;;;;;17.27;15.50;;;28.20;63.20;;;;;;5064295;28;20184;-90
2022/08/18 11:13:42;;;;;;;18.60;16.70;;;28.20;63.40;;;;;;5063143;28;20179;-90
2022/08/18 11:16:19;;;;;;;16.90;15.30;;;28.10;64.20;;;;;;5063625;28;20443;-90
2022/08/18 11:18:48;;;;;;;16.83;15.23;;;28.20;62.80;;;;;;5058473;28;20289;-91
2022/08/18 11:21:55;;;;;;;22.80;20.53;;;28.20;62.90;;;;;;5058768;28;20167;-91
2022/08/18 11:24:43;;;;;;;17.50;15.73;;;28.20;62.50;;;;;;5060904;28;20592;-90
2022/08/18 11:27:55;;;;;;;16.43;14.93;;;28.20;63.40;;;;;;5061675;28;20609;-90
2022/08/18 11:33:42;;;;;;;17.97;16.30;;;28.30;62.20;;;;;;5061018;28;20170;-90
2022/08/18 11:36:08;;;;;;;30.20;27.00;;;28.20;62.20;;;;;;5061483;28;20171;-89
2022/08/18 11:38:37;;;;;;;17.30;15.70;;;28.20;65.00;;;;;;5058969;28;20605;-90
2022/08/18 11:41:17;;;;;;;17.97;16.27;;;28.20;62.50;;;;;;5062929;28;20183;-90
2022/08/18 11:43:44;;;;;;;23.20;20.80;;;28.10;62.00;;;;;;5059231;28;20159;-90
2022/08/18 11:46:36;;;;;;;17.63;16.03;;;28.10;64.70;;;;;;5056502;28;20226;-90
2022/08/18 11:49:15;;;;;;;18.47;16.67;;;28.10;63.60;;;;;;5062183;28;20251;-90
2022/08/18 11:55:27;;;;;;;18.15;16.55;;;28.10;63.70;;;;;;5054214;28;20191;-90
2022/08/18 11:57:54;;;;;;;17.03;15.53;;;28.10;62.60;;;;;;5052940;28;20774;-90
2022/08/18 12:00:57;;;;;;;21.67;19.57;;;28.10;62.60;;;;;;5061349;28;20407;-90
2022/08/18 12:06:55;;;;;;;17.50;15.90;;;28.10;63.30;;;;;;5061839;28;20236;-90
2022/08/18 12:09:42;;;;;;;17.40;15.90;;;28.00;63.70;;;;;;5064606;28;20171;-90
2022/08/18 12:12:49;;;;;;;18.50;16.80;;;28.00;63.70;;;;;;5063356;28;20568;-89
2022/08/18 12:15:31;;;;;;;18.20;16.50;;;28.00;63.20;;;;;;5062401;28;20717;-90
2022/08/18 12:17:56;;;;;;;19.93;18.03;;;28.00;64.30;;;;;;5055051;28;20179;-90
2022/08/18 12:20:22;;;;;;;29.40;26.33;;;28.00;64.80;;;;;;5056529;28;20186;-89
2022/08/18 12:22:49;;;;;;;17.70;16.00;;;28.00;67.50;;;;;;5060606;28;20347;-90
2022/08/18 12:25:17;;;;;;;17.57;15.97;;;28.10;64.40;;;;;;5059496;28;20305;-89
2022/08/18 12:34:27;;;;;;;20.67;18.63;;;28.20;66.90;;;;;;5058802;28;20343;-91
2022/08/18 12:36:57;;;;;;;17.57;15.97;;;28.30;63.70;;;;;;5047374;28;20180;-90
2022/08/18 12:39:23;;;;;;;18.90;17.17;;;28.30;62.50;;;;;;5061676;28;20175;-90
2022/08/18 12:41:49;;;;;;;17.60;16.07;;;28.30;62.00;;;;;;5062977;28;20175;-91
2022/08/18 12:44:15;;;;;;;17.43;15.93;;;28.30;61.70;;;;;;5062627;28;20196;-90
2022/08/18 12:46:41;;;;;;;17.60;16.00;;;28.30;61.60;;;;;;5058933;28;20416;-91
2022/08/18 12:49:15;;;;;;;17.83;16.23;;;28.30;61.90;;;;;;5057596;28;20642;-90
2022/08/18 12:51:40;;;;;;;20.57;18.63;;;28.30;62.10;;;;;;5057386;28;20171;-91
2022/08/18 12:54:06;;;;;;;20.13;18.27;;;28.30;63.00;;;;;;5058093;28;20732;-91
2022/08/18 12:56:32;;;;;;;20.00;18.30;;;28.30;62.60;;;;;;5062959;28;20408;-91
2022/08/18 12:59:04;;;;;;;17.13;15.57;;;28.30;62.20;;;;;;5063808;28;20457;-91
2022/08/18 13:01:31;;;;;;;19.73;17.93;;;28.30;62.00;;;;;;5066439;28;20179;-90
2022/08/18 13:03:58;;;;;;;17.53;15.93;;;28.40;61.70;;;;;;5056568;28;20167;-90
2022/08/18 13:06:24;;;;;;;18.05;16.25;;;28.40;61.60;;;;;;5053688;28;20210;-90
2022/08/18 13:08:51;;;;;;;17.52;15.98;;;28.50;61.40;;;;;;5065106;28;20310;-89
2022/08/18 13:11:17;;;;;;;16.73;15.18;;;28.60;60.70;;;;;;5054885;28;20168;-89
2022/08/18 13:13:44;;;;;;;16.70;15.30;;;28.60;60.40;;;;;;5061182;28;20229;-89
2022/08/18 13:16:11;;;;;;;21.63;19.35;;;28.70;60.70;;;;;;5066479;28;20338;-89
2022/08/18 13:18:40;;;;;;;17.17;15.63;;;28.70;60.90;;;;;;5062081;28;20172;-90
2022/08/18 13:24:28;;;;;;;17.40;15.90;;;28.70;60.70;;;;;;5063878;28;20206;-90
2022/08/18 13:26:55;;;;;;;17.73;16.20;;;28.80;60.20;;;;;;5059447;28;20685;-90
2022/08/18 13:29:20;;;;;;;16.67;15.27;;;28.80;60.10;;;;;;5065953;28;20274;-90
2022/08/18 13:31:46;;;;;;;17.83;15.98;;;28.80;60.00;;;;;;5066997;28;20424;-90
2022/08/18 13:34:12;;;;;;;16.60;15.20;;;28.80;59.80;;;;;;5062003;28;20176;-90
2022/08/18 13:36:44;;;;;;;16.50;15.10;;;28.80;59.60;;;;;;5063984;28;20288;-91
2022/08/18 13:39:15;;;;;;;16.48;14.88;;;28.80;59.80;;;;;;5064024;28;20186;-91
2022/08/18 13:41:42;;;;;;;16.58;15.10;;;28.80;59.60;;;;;;5063983;28;20565;-90
2022/08/18 13:44:11;;;;;;;16.55;15.18;;;28.90;59.50;;;;;;5064098;28;20345;-90
2022/08/18 13:53:21;;;;;;;15.55;14.07;;;28.90;59.30;;;;;;5054599;28;20454;-91
2022/08/18 13:55:47;;;;;;;15.90;14.55;;;28.90;59.30;;;;;;5057089;28;20267;-90
2022/08/18 13:58:32;;;;;;;16.58;15.07;;;28.90;59.40;;;;;;5058434;28;20549;-91
2022/08/18 14:01:01;;;;;;;16.27;14.75;;;28.90;59.50;;;;;;5061658;28;20275;-91
2022/08/18 14:03:27;;;;;;;15.27;13.70;;;28.90;59.70;;;;;;5063671;28;20179;-91
2022/08/18 14:05:56;;;;;;;15.48;14.18;;;28.90;59.60;;;;;;5061293;28;20203;-91
2022/08/18 14:08:23;;;;;;;15.38;14.07;;;28.90;59.40;;;;;;5059718;28;20344;-90
2022/08/18 14:10:53;;;;;;;15.48;14.00;;;28.90;59.40;;;;;;5063205;28;20245;-90
2022/08/18 14:13:18;;;;;;;14.23;13.02;;;28.90;59.60;;;;;;5064253;28;20172;-90
2022/08/18 14:15:44;;;;;;;14.25;13.05;;;28.90;59.50;;;;;;5063894;28;20354;-90
2022/08/18 14:18:10;;;;;;;14.68;13.27;;;29.00;59.60;;;;;;5066197;28;20182;-91
2022/08/18 14:28:49;;;;;;;13.27;12.13;;;28.90;60.90;;;;;;5060637;28;20224;-90
2022/08/18 14:31:16;;;;;;;13.32;12.00;;;28.90;66.70;;;;;;5065206;28;20187;-91
2022/08/18 14:38:00;;;;;;;17.85;12.00;;;28.90;66.30;;;;;;5057509;28;20321;-91
2022/08/18 14:40:30;;;;;;;11.73;10.50;;;28.90;65.30;;;;;;5063908;28;20202;-91
2022/08/18 14:46:46;;;;;;;14.98;11.68;;;28.90;64.50;;;;;;5064943;28;20210;-91
2022/08/18 14:55:56;;;;;;;10.80;9.80;;;28.90;63.30;;;;;;5060804;28;20319;-91
2022/08/18 14:58:27;;;;;;;11.00;9.98;;;28.90;62.10;;;;;;5057170;28;20182;-91
2022/08/18 15:01:01;;;;;;;12.07;10.05;;;28.80;61.70;;;;;;5063456;28;20233;-91
2022/08/18 15:03:35;;;;;;;10.45;9.38;;;28.80;62.90;;;;;;5058486;28;20206;-91
2022/08/18 15:16:35;;;;;;;10.43;9.35;;;29.00;60.80;;;;;;5064569;28;20203;-91
2022/08/18 15:19:03;;;;;;;10.70;9.60;;;29.00;60.40;;;;;;5043870;28;20172;-91
2022/08/18 15:31:07;;;;;;;9.63;8.10;;;29.00;59.90;;;;;;5039807;28;20168;-91